Farmersville, Alabama
Current Conditions -  °F | °C
As of 4:15 PM on Friday 24 Oct 2014 (Local Time) from KSEM Reporting Station
Clear Clear  
Wind Chill: 75°   Ceiling: Unl
Heat Index: 75°   Visibility: 10mi
Dew Point: 41°   Wind: 9mph
Humidity: 29%   Direction: 340°NNW
Pressure: 30.01"   Gusts: 16mph
Location:  32.1078°N, 86.9702°W
Report Text: KSEM 242115Z AUTO 34008G14KT 10SM CLR 24/05 A3001 RMK AO2
Loading
Personal Weather Stations






























Interactive Weather Map
Tropical Storm Tracking
New forecast layout! Learn more

10-Day Weather Forecast

Advertisements
Track Severe Weather on mobile